<?xml version="1.0" encoding="UTF-8" standalone="no" ?>
<gpx xmlns="http://www.topografix.com/GPX/1/1" xmlns:xsi="http://www.w3.org/2001/XMLSchema-instance" xsi:schemaLocation="http://www.topografix.com/GPX/1/1 http://www.topografix.com/GPX/1/1/gpx.xsd" version="1.1" creator="VisuGPX - https://www.visugpx.com">
  <metadata>
    <name>Les 3 Monts par la vallée des Maranges</name>
    <desc><![CDATA[ESSAI
]]></desc>
  </metadata>
  <wpt lat="46.91949" lon="4.67828">
    <ele>320</ele>
    <name><![CDATA[Parking de l'église Saint Jean]]></name>
  </wpt>
  <wpt lat="46.9201" lon="4.66921">
    <ele>509</ele>
    <name><![CDATA[Montagne des Trois Croix]]></name>
  </wpt>
  <wpt lat="46.93189" lon="4.66202">
    <ele>457</ele>
    <name><![CDATA[Carrefour vers Fontaine Noire]]></name>
  </wpt>
  <wpt lat="46.93309" lon="4.63936">
    <ele>351</ele>
    <name><![CDATA[Croix de la Craie]]></name>
  </wpt>
  <wpt lat="46.92968" lon="4.62231">
    <ele>368</ele>
    <name><![CDATA[Marcheseuil]]></name>
  </wpt>
  <wpt lat="46.93069" lon="4.61266">
    <ele>496</ele>
    <name><![CDATA[Mont de Rème]]></name>
  </wpt>
  <wpt lat="46.92506" lon="4.59575">
    <ele>446</ele>
    <name><![CDATA[Carrefour GR137]]></name>
  </wpt>
  <wpt lat="46.91502" lon="4.58811">
    <ele>432</ele>
    <name><![CDATA[St-Gervais-sur-Couches]]></name>
  </wpt>
  <wpt lat="46.90847" lon="4.5958">
    <ele>370</ele>
    <name><![CDATA[Mazenay]]></name>
  </wpt>
  <wpt lat="46.90222" lon="4.6094">
    <ele>518</ele>
    <name><![CDATA[Mont Rome Château]]></name>
  </wpt>
  <wpt lat="46.89891" lon="4.62533">
    <ele>402</ele>
    <name><![CDATA[Croix Bouchat]]></name>
  </wpt>
  <wpt lat="46.9066" lon="4.63487">
    <ele>327</ele>
    <name><![CDATA[Carrefour GR PR]]></name>
  </wpt>
  <wpt lat="46.90563" lon="4.64348">
    <ele>282</ele>
    <name><![CDATA[Croix]]></name>
  </wpt>
  <wpt lat="46.90479" lon="4.65382">
    <ele>236</ele>
    <name><![CDATA[Sampigny]]></name>
  </wpt>
  <wpt lat="46.89606" lon="4.66791">
    <ele>231</ele>
    <name><![CDATA[Cheilly-les-Maranges]]></name>
  </wpt>
  <wpt lat="46.90527" lon="4.6713">
    <ele>263</ele>
    <name><![CDATA[Carrefour GRP PR]]></name>
  </wpt>
  <wpt lat="46.91386" lon="4.6804">
    <ele>262</ele>
    <name><![CDATA[Saintenay le Haut]]></name>
  </wpt>
  <wpt lat="46.91964" lon="4.67824">
    <ele>322</ele>
    <name><![CDATA[Parking de l'église Saint Jean]]></name>
  </wpt>
  <trk>
    <name><![CDATA[Les 3 Monts par la vallée des Maranges]]></name>
    <trkseg>
      <trkpt lat="46.91949" lon="4.67828">
        <ele>320</ele>
        <time>2021-03-06T08:24:46+01:00</time>
      </trkpt>
      <trkpt lat="46.91958" lon="4.67837">
        <ele>322</ele>
        <time>2021-03-06T08:24:51+01:00</time>
      </trkpt>
      <trkpt lat="46.91976" lon="4.67796">
        <ele>324</ele>
        <time>2021-03-06T08:24:56+01:00</time>
      </trkpt>
      <trkpt lat="46.91971" lon="4.6777">
        <ele>323</ele>
        <time>2021-03-06T08:25:01+01:00</time>
      </trkpt>
      <trkpt lat="46.91987" lon="4.67712">
        <ele>326</ele>
        <time>2021-03-06T08:25:06+01:00</time>
      </trkpt>
      <trkpt lat="46.92016" lon="4.67663">
        <ele>333</ele>
        <time>2021-03-06T08:25:11+01:00</time>
      </trkpt>
      <trkpt lat="46.9201" lon="4.67636">
        <ele>337</ele>
        <time>2021-03-06T08:25:16+01:00</time>
      </trkpt>
      <trkpt lat="46.91961" lon="4.67586">
        <ele>339</ele>
        <time>2021-03-06T08:25:21+01:00</time>
      </trkpt>
      <trkpt lat="46.91925" lon="4.67518">
        <ele>349</ele>
        <time>2021-03-06T08:25:26+01:00</time>
      </trkpt>
      <trkpt lat="46.91765" lon="4.67465">
        <ele>355</ele>
        <time>2021-03-06T08:25:31+01:00</time>
      </trkpt>
      <trkpt lat="46.91682" lon="4.67455">
        <ele>358</ele>
        <time>2021-03-06T08:25:36+01:00</time>
      </trkpt>
      <trkpt lat="46.91539" lon="4.6742">
        <ele>366</ele>
        <time>2021-03-06T08:25:41+01:00</time>
      </trkpt>
      <trkpt lat="46.9152" lon="4.67371">
        <ele>373</ele>
        <time>2021-03-06T08:25:46+01:00</time>
      </trkpt>
      <trkpt lat="46.91513" lon="4.67312">
        <ele>381</ele>
        <time>2021-03-06T08:25:51+01:00</time>
      </trkpt>
      <trkpt lat="46.91505" lon="4.6722">
        <ele>392</ele>
        <time>2021-03-06T08:25:56+01:00</time>
      </trkpt>
      <trkpt lat="46.91508" lon="4.67036">
        <ele>420</ele>
        <time>2021-03-06T08:26:01+01:00</time>
      </trkpt>
      <trkpt lat="46.91502" lon="4.66913">
        <ele>433</ele>
        <time>2021-03-06T08:26:06+01:00</time>
      </trkpt>
      <trkpt lat="46.91508" lon="4.66805">
        <ele>444</ele>
        <time>2021-03-06T08:26:11+01:00</time>
      </trkpt>
      <trkpt lat="46.91493" lon="4.66753">
        <ele>445</ele>
        <time>2021-03-06T08:26:16+01:00</time>
      </trkpt>
      <trkpt lat="46.91491" lon="4.66697">
        <ele>448</ele>
        <time>2021-03-06T08:26:21+01:00</time>
      </trkpt>
      <trkpt lat="46.91517" lon="4.66608">
        <ele>457</ele>
        <time>2021-03-06T08:26:26+01:00</time>
      </trkpt>
      <trkpt lat="46.91561" lon="4.66589">
        <ele>462</ele>
        <time>2021-03-06T08:26:31+01:00</time>
      </trkpt>
      <trkpt lat="46.91651" lon="4.66459">
        <ele>469</ele>
        <time>2021-03-06T08:26:36+01:00</time>
      </trkpt>
      <trkpt lat="46.91746" lon="4.66356">
        <ele>465</ele>
        <time>2021-03-06T08:26:41+01:00</time>
      </trkpt>
      <trkpt lat="46.91811" lon="4.66498">
        <ele>475</ele>
        <time>2021-03-06T08:26:46+01:00</time>
      </trkpt>
      <trkpt lat="46.91871" lon="4.66551">
        <ele>476</ele>
        <time>2021-03-06T08:26:51+01:00</time>
      </trkpt>
      <trkpt lat="46.91898" lon="4.66598">
        <ele>479</ele>
        <time>2021-03-06T08:26:56+01:00</time>
      </trkpt>
      <trkpt lat="46.91894" lon="4.6669">
        <ele>485</ele>
        <time>2021-03-06T08:27:01+01:00</time>
      </trkpt>
      <trkpt lat="46.91929" lon="4.66896">
        <ele>505</ele>
        <time>2021-03-06T08:27:06+01:00</time>
      </trkpt>
      <trkpt lat="46.91977" lon="4.66946">
        <ele>507</ele>
        <time>2021-03-06T08:27:11+01:00</time>
      </trkpt>
      <trkpt lat="46.9201" lon="4.66921">
        <ele>509</ele>
        <time>2021-03-06T08:27:16+01:00</time>
      </trkpt>
      <trkpt lat="46.92019" lon="4.66926">
        <ele>508</ele>
        <time>2021-03-06T08:27:21+01:00</time>
      </trkpt>
      <trkpt lat="46.92053" lon="4.66906">
        <ele>503</ele>
        <time>2021-03-06T08:27:26+01:00</time>
      </trkpt>
      <trkpt lat="46.92008" lon="4.6676">
        <ele>495</ele>
        <time>2021-03-06T08:27:31+01:00</time>
      </trkpt>
      <trkpt lat="46.9204" lon="4.66739">
        <ele>490</ele>
        <time>2021-03-06T08:27:36+01:00</time>
      </trkpt>
      <trkpt lat="46.92107" lon="4.66737">
        <ele>484</ele>
        <time>2021-03-06T08:27:41+01:00</time>
      </trkpt>
      <trkpt lat="46.92169" lon="4.66784">
        <ele>483</ele>
        <time>2021-03-06T08:27:46+01:00</time>
      </trkpt>
      <trkpt lat="46.92246" lon="4.66883">
        <ele>480</ele>
        <time>2021-03-06T08:27:51+01:00</time>
      </trkpt>
      <trkpt lat="46.92277" lon="4.66878">
        <ele>478</ele>
        <time>2021-03-06T08:27:56+01:00</time>
      </trkpt>
      <trkpt lat="46.92314" lon="4.66828">
        <ele>475</ele>
        <time>2021-03-06T08:28:01+01:00</time>
      </trkpt>
      <trkpt lat="46.92374" lon="4.66798">
        <ele>468</ele>
        <time>2021-03-06T08:28:06+01:00</time>
      </trkpt>
      <trkpt lat="46.92445" lon="4.66663">
        <ele>457</ele>
        <time>2021-03-06T08:28:11+01:00</time>
      </trkpt>
      <trkpt lat="46.92482" lon="4.66514">
        <ele>446</ele>
        <time>2021-03-06T08:28:16+01:00</time>
      </trkpt>
      <trkpt lat="46.92545" lon="4.6649">
        <ele>442</ele>
        <time>2021-03-06T08:28:21+01:00</time>
      </trkpt>
      <trkpt lat="46.92586" lon="4.66527">
        <ele>443</ele>
        <time>2021-03-06T08:28:26+01:00</time>
      </trkpt>
      <trkpt lat="46.92742" lon="4.66613">
        <ele>450</ele>
        <time>2021-03-06T08:28:31+01:00</time>
      </trkpt>
      <trkpt lat="46.92796" lon="4.66592">
        <ele>450</ele>
        <time>2021-03-06T08:28:36+01:00</time>
      </trkpt>
      <trkpt lat="46.92925" lon="4.66528">
        <ele>454</ele>
        <time>2021-03-06T08:28:41+01:00</time>
      </trkpt>
      <trkpt lat="46.92953" lon="4.66513">
        <ele>453</ele>
        <time>2021-03-06T08:28:46+01:00</time>
      </trkpt>
      <trkpt lat="46.9296" lon="4.66476">
        <ele>453</ele>
        <time>2021-03-06T08:28:51+01:00</time>
      </trkpt>
      <trkpt lat="46.92988" lon="4.66446">
        <ele>453</ele>
        <time>2021-03-06T08:28:56+01:00</time>
      </trkpt>
      <trkpt lat="46.9303" lon="4.66416">
        <ele>452</ele>
        <time>2021-03-06T08:29:01+01:00</time>
      </trkpt>
      <trkpt lat="46.93055" lon="4.66389">
        <ele>453</ele>
        <time>2021-03-06T08:29:06+01:00</time>
      </trkpt>
      <trkpt lat="46.93081" lon="4.66369">
        <ele>453</ele>
        <time>2021-03-06T08:29:11+01:00</time>
      </trkpt>
      <trkpt lat="46.93108" lon="4.66333">
        <ele>454</ele>
        <time>2021-03-06T08:29:16+01:00</time>
      </trkpt>
      <trkpt lat="46.93131" lon="4.66307">
        <ele>455</ele>
        <time>2021-03-06T08:29:21+01:00</time>
      </trkpt>
      <trkpt lat="46.93154" lon="4.66277">
        <ele>456</ele>
        <time>2021-03-06T08:29:26+01:00</time>
      </trkpt>
      <trkpt lat="46.93175" lon="4.66238">
        <ele>457</ele>
        <time>2021-03-06T08:29:31+01:00</time>
      </trkpt>
      <trkpt lat="46.93189" lon="4.66202">
        <ele>457</ele>
        <time>2021-03-06T08:29:36+01:00</time>
      </trkpt>
      <trkpt lat="46.9319" lon="4.66094">
        <ele>454</ele>
        <time>2021-03-06T08:29:41+01:00</time>
      </trkpt>
      <trkpt lat="46.93166" lon="4.65991">
        <ele>442</ele>
        <time>2021-03-06T08:29:46+01:00</time>
      </trkpt>
      <trkpt lat="46.93198" lon="4.65841">
        <ele>424</ele>
        <time>2021-03-06T08:29:51+01:00</time>
      </trkpt>
      <trkpt lat="46.93246" lon="4.65714">
        <ele>412</ele>
        <time>2021-03-06T08:29:56+01:00</time>
      </trkpt>
      <trkpt lat="46.93278" lon="4.65573">
        <ele>400</ele>
        <time>2021-03-06T08:30:01+01:00</time>
      </trkpt>
      <trkpt lat="46.93316" lon="4.65418">
        <ele>392</ele>
        <time>2021-03-06T08:30:06+01:00</time>
      </trkpt>
      <trkpt lat="46.93202" lon="4.65363">
        <ele>391</ele>
        <time>2021-03-06T08:30:11+01:00</time>
      </trkpt>
      <trkpt lat="46.93214" lon="4.65242">
        <ele>388</ele>
        <time>2021-03-06T08:30:16+01:00</time>
      </trkpt>
      <trkpt lat="46.93232" lon="4.65144">
        <ele>385</ele>
        <time>2021-03-06T08:30:21+01:00</time>
      </trkpt>
      <trkpt lat="46.93243" lon="4.65024">
        <ele>382</ele>
        <time>2021-03-06T08:30:26+01:00</time>
      </trkpt>
      <trkpt lat="46.93252" lon="4.64903">
        <ele>379</ele>
        <time>2021-03-06T08:30:31+01:00</time>
      </trkpt>
      <trkpt lat="46.93258" lon="4.64779">
        <ele>376</ele>
        <time>2021-03-06T08:30:36+01:00</time>
      </trkpt>
      <trkpt lat="46.93292" lon="4.64621">
        <ele>373</ele>
        <time>2021-03-06T08:30:41+01:00</time>
      </trkpt>
      <trkpt lat="46.93316" lon="4.64487">
        <ele>370</ele>
        <time>2021-03-06T08:30:46+01:00</time>
      </trkpt>
      <trkpt lat="46.93331" lon="4.6432">
        <ele>366</ele>
        <time>2021-03-06T08:30:51+01:00</time>
      </trkpt>
      <trkpt lat="46.93337" lon="4.64165">
        <ele>360</ele>
        <time>2021-03-06T08:30:56+01:00</time>
      </trkpt>
      <trkpt lat="46.93309" lon="4.63936">
        <ele>351</ele>
        <time>2021-03-06T08:31:01+01:00</time>
      </trkpt>
      <trkpt lat="46.93201" lon="4.63588">
        <ele>339</ele>
        <time>2021-03-06T08:31:06+01:00</time>
      </trkpt>
      <trkpt lat="46.93113" lon="4.63545">
        <ele>329</ele>
        <time>2021-03-06T08:31:11+01:00</time>
      </trkpt>
      <trkpt lat="46.93037" lon="4.63577">
        <ele>323</ele>
        <time>2021-03-06T08:31:16+01:00</time>
      </trkpt>
      <trkpt lat="46.93015" lon="4.63581">
        <ele>321</ele>
        <time>2021-03-06T08:31:21+01:00</time>
      </trkpt>
      <trkpt lat="46.9302" lon="4.6352">
        <ele>317</ele>
        <time>2021-03-06T08:31:26+01:00</time>
      </trkpt>
      <trkpt lat="46.93041" lon="4.63463">
        <ele>314</ele>
        <time>2021-03-06T08:31:31+01:00</time>
      </trkpt>
      <trkpt lat="46.93021" lon="4.63446">
        <ele>311</ele>
        <time>2021-03-06T08:31:36+01:00</time>
      </trkpt>
      <trkpt lat="46.93007" lon="4.63442">
        <ele>310</ele>
        <time>2021-03-06T08:31:41+01:00</time>
      </trkpt>
      <trkpt lat="46.92998" lon="4.63417">
        <ele>307</ele>
        <time>2021-03-06T08:31:46+01:00</time>
      </trkpt>
      <trkpt lat="46.92993" lon="4.63391">
        <ele>303</ele>
        <time>2021-03-06T08:31:51+01:00</time>
      </trkpt>
      <trkpt lat="46.92979" lon="4.63369">
        <ele>300</ele>
        <time>2021-03-06T08:31:56+01:00</time>
      </trkpt>
      <trkpt lat="46.92994" lon="4.63269">
        <ele>292</ele>
        <time>2021-03-06T08:32:01+01:00</time>
      </trkpt>
      <trkpt lat="46.93013" lon="4.63216">
        <ele>290</ele>
        <time>2021-03-06T08:32:06+01:00</time>
      </trkpt>
      <trkpt lat="46.93013" lon="4.63197">
        <ele>289</ele>
        <time>2021-03-06T08:32:11+01:00</time>
      </trkpt>
      <trkpt lat="46.93008" lon="4.63182">
        <ele>289</ele>
        <time>2021-03-06T08:32:16+01:00</time>
      </trkpt>
      <trkpt lat="46.93007" lon="4.63137">
        <ele>289</ele>
        <time>2021-03-06T08:32:21+01:00</time>
      </trkpt>
      <trkpt lat="46.93035" lon="4.63139">
        <ele>288</ele>
        <time>2021-03-06T08:32:26+01:00</time>
      </trkpt>
      <trkpt lat="46.93074" lon="4.63121">
        <ele>288</ele>
        <time>2021-03-06T08:32:31+01:00</time>
      </trkpt>
      <trkpt lat="46.93101" lon="4.63095">
        <ele>288</ele>
        <time>2021-03-06T08:32:36+01:00</time>
      </trkpt>
      <trkpt lat="46.93137" lon="4.63086">
        <ele>288</ele>
        <time>2021-03-06T08:32:41+01:00</time>
      </trkpt>
      <trkpt lat="46.93131" lon="4.63062">
        <ele>289</ele>
        <time>2021-03-06T08:32:46+01:00</time>
      </trkpt>
      <trkpt lat="46.93128" lon="4.63012">
        <ele>291</ele>
        <time>2021-03-06T08:32:51+01:00</time>
      </trkpt>
      <trkpt lat="46.93127" lon="4.62953">
        <ele>299</ele>
        <time>2021-03-06T08:32:56+01:00</time>
      </trkpt>
      <trkpt lat="46.93119" lon="4.6285">
        <ele>318</ele>
        <time>2021-03-06T08:33:01+01:00</time>
      </trkpt>
      <trkpt lat="46.93145" lon="4.62743">
        <ele>333</ele>
        <time>2021-03-06T08:33:06+01:00</time>
      </trkpt>
      <trkpt lat="46.92997" lon="4.62269">
        <ele>366</ele>
        <time>2021-03-06T08:33:11+01:00</time>
      </trkpt>
      <trkpt lat="46.92968" lon="4.62231">
        <ele>368</ele>
        <time>2021-03-06T08:33:16+01:00</time>
      </trkpt>
      <trkpt lat="46.92974" lon="4.62205">
        <ele>371</ele>
        <time>2021-03-06T08:33:21+01:00</time>
      </trkpt>
      <trkpt lat="46.92974" lon="4.6212">
        <ele>379</ele>
        <time>2021-03-06T08:33:26+01:00</time>
      </trkpt>
      <trkpt lat="46.92984" lon="4.62068">
        <ele>384</ele>
        <time>2021-03-06T08:33:31+01:00</time>
      </trkpt>
      <trkpt lat="46.92995" lon="4.61861">
        <ele>410</ele>
        <time>2021-03-06T08:33:36+01:00</time>
      </trkpt>
      <trkpt lat="46.93007" lon="4.61836">
        <ele>413</ele>
        <time>2021-03-06T08:33:41+01:00</time>
      </trkpt>
      <trkpt lat="46.93046" lon="4.61807">
        <ele>417</ele>
        <time>2021-03-06T08:33:46+01:00</time>
      </trkpt>
      <trkpt lat="46.93071" lon="4.61792">
        <ele>420</ele>
        <time>2021-03-06T08:33:51+01:00</time>
      </trkpt>
      <trkpt lat="46.93095" lon="4.6176">
        <ele>426</ele>
        <time>2021-03-06T08:33:56+01:00</time>
      </trkpt>
      <trkpt lat="46.93086" lon="4.61657">
        <ele>442</ele>
        <time>2021-03-06T08:34:01+01:00</time>
      </trkpt>
      <trkpt lat="46.93048" lon="4.6158">
        <ele>454</ele>
        <time>2021-03-06T08:34:06+01:00</time>
      </trkpt>
      <trkpt lat="46.93034" lon="4.61442">
        <ele>474</ele>
        <time>2021-03-06T08:34:11+01:00</time>
      </trkpt>
      <trkpt lat="46.93101" lon="4.61318">
        <ele>483</ele>
        <time>2021-03-06T08:34:16+01:00</time>
      </trkpt>
      <trkpt lat="46.93069" lon="4.61266">
        <ele>496</ele>
        <time>2021-03-06T08:34:21+01:00</time>
      </trkpt>
      <trkpt lat="46.92931" lon="4.61271">
        <ele>503</ele>
        <time>2021-03-06T08:34:26+01:00</time>
      </trkpt>
      <trkpt lat="46.9287" lon="4.61237">
        <ele>502</ele>
        <time>2021-03-06T08:34:31+01:00</time>
      </trkpt>
      <trkpt lat="46.92821" lon="4.61164">
        <ele>506</ele>
        <time>2021-03-06T08:34:36+01:00</time>
      </trkpt>
      <trkpt lat="46.92823" lon="4.60967">
        <ele>503</ele>
        <time>2021-03-06T08:34:41+01:00</time>
      </trkpt>
      <trkpt lat="46.92752" lon="4.60747">
        <ele>469</ele>
        <time>2021-03-06T08:34:46+01:00</time>
      </trkpt>
      <trkpt lat="46.92769" lon="4.60542">
        <ele>442</ele>
        <time>2021-03-06T08:34:51+01:00</time>
      </trkpt>
      <trkpt lat="46.92779" lon="4.60513">
        <ele>439</ele>
        <time>2021-03-06T08:34:56+01:00</time>
      </trkpt>
      <trkpt lat="46.9278" lon="4.60466">
        <ele>436</ele>
        <time>2021-03-06T08:35:01+01:00</time>
      </trkpt>
      <trkpt lat="46.92785" lon="4.60138">
        <ele>430</ele>
        <time>2021-03-06T08:35:06+01:00</time>
      </trkpt>
      <trkpt lat="46.9278" lon="4.60126">
        <ele>430</ele>
        <time>2021-03-06T08:35:11+01:00</time>
      </trkpt>
      <trkpt lat="46.92717" lon="4.60179">
        <ele>427</ele>
        <time>2021-03-06T08:35:16+01:00</time>
      </trkpt>
      <trkpt lat="46.92618" lon="4.6024">
        <ele>425</ele>
        <time>2021-03-06T08:35:21+01:00</time>
      </trkpt>
      <trkpt lat="46.92569" lon="4.60276">
        <ele>424</ele>
        <time>2021-03-06T08:35:26+01:00</time>
      </trkpt>
      <trkpt lat="46.92511" lon="4.60298">
        <ele>423</ele>
        <time>2021-03-06T08:35:31+01:00</time>
      </trkpt>
      <trkpt lat="46.92488" lon="4.60191">
        <ele>422</ele>
        <time>2021-03-06T08:35:36+01:00</time>
      </trkpt>
      <trkpt lat="46.92467" lon="4.60147">
        <ele>422</ele>
        <time>2021-03-06T08:35:41+01:00</time>
      </trkpt>
      <trkpt lat="46.92463" lon="4.60112">
        <ele>423</ele>
        <time>2021-03-06T08:35:46+01:00</time>
      </trkpt>
      <trkpt lat="46.92468" lon="4.60076">
        <ele>424</ele>
        <time>2021-03-06T08:35:51+01:00</time>
      </trkpt>
      <trkpt lat="46.92489" lon="4.60035">
        <ele>426</ele>
        <time>2021-03-06T08:35:56+01:00</time>
      </trkpt>
      <trkpt lat="46.92494" lon="4.60006">
        <ele>427</ele>
        <time>2021-03-06T08:36:01+01:00</time>
      </trkpt>
      <trkpt lat="46.92508" lon="4.59936">
        <ele>431</ele>
        <time>2021-03-06T08:36:06+01:00</time>
      </trkpt>
      <trkpt lat="46.92503" lon="4.59858">
        <ele>437</ele>
        <time>2021-03-06T08:36:11+01:00</time>
      </trkpt>
      <trkpt lat="46.92489" lon="4.59777">
        <ele>442</ele>
        <time>2021-03-06T08:36:16+01:00</time>
      </trkpt>
      <trkpt lat="46.92506" lon="4.59575">
        <ele>446</ele>
        <time>2021-03-06T08:36:21+01:00</time>
      </trkpt>
      <trkpt lat="46.92342" lon="4.59502">
        <ele>446</ele>
        <time>2021-03-06T08:36:26+01:00</time>
      </trkpt>
      <trkpt lat="46.92215" lon="4.59327">
        <ele>445</ele>
        <time>2021-03-06T08:36:31+01:00</time>
      </trkpt>
      <trkpt lat="46.92126" lon="4.59281">
        <ele>444</ele>
        <time>2021-03-06T08:36:36+01:00</time>
      </trkpt>
      <trkpt lat="46.91996" lon="4.59247">
        <ele>444</ele>
        <time>2021-03-06T08:36:41+01:00</time>
      </trkpt>
      <trkpt lat="46.91779" lon="4.59077">
        <ele>437</ele>
        <time>2021-03-06T08:36:46+01:00</time>
      </trkpt>
      <trkpt lat="46.91723" lon="4.59016">
        <ele>435</ele>
        <time>2021-03-06T08:36:51+01:00</time>
      </trkpt>
      <trkpt lat="46.91606" lon="4.58918">
        <ele>432</ele>
        <time>2021-03-06T08:36:56+01:00</time>
      </trkpt>
      <trkpt lat="46.91597" lon="4.58892">
        <ele>431</ele>
        <time>2021-03-06T08:37:01+01:00</time>
      </trkpt>
      <trkpt lat="46.91607" lon="4.58865">
        <ele>432</ele>
        <time>2021-03-06T08:37:06+01:00</time>
      </trkpt>
      <trkpt lat="46.91607" lon="4.58846">
        <ele>432</ele>
        <time>2021-03-06T08:37:11+01:00</time>
      </trkpt>
      <trkpt lat="46.91595" lon="4.58847">
        <ele>432</ele>
        <time>2021-03-06T08:37:16+01:00</time>
      </trkpt>
      <trkpt lat="46.91577" lon="4.58847">
        <ele>431</ele>
        <time>2021-03-06T08:37:21+01:00</time>
      </trkpt>
      <trkpt lat="46.9157" lon="4.58841">
        <ele>431</ele>
        <time>2021-03-06T08:37:26+01:00</time>
      </trkpt>
      <trkpt lat="46.91523" lon="4.58819">
        <ele>432</ele>
        <time>2021-03-06T08:37:31+01:00</time>
      </trkpt>
      <trkpt lat="46.91502" lon="4.58811">
        <ele>432</ele>
        <time>2021-03-06T08:37:36+01:00</time>
      </trkpt>
      <trkpt lat="46.91488" lon="4.58821">
        <ele>432</ele>
        <time>2021-03-06T08:37:41+01:00</time>
      </trkpt>
      <trkpt lat="46.91471" lon="4.58845">
        <ele>431</ele>
        <time>2021-03-06T08:37:46+01:00</time>
      </trkpt>
      <trkpt lat="46.9146" lon="4.58861">
        <ele>430</ele>
        <time>2021-03-06T08:37:51+01:00</time>
      </trkpt>
      <trkpt lat="46.91438" lon="4.58894">
        <ele>428</ele>
        <time>2021-03-06T08:37:56+01:00</time>
      </trkpt>
      <trkpt lat="46.91392" lon="4.58963">
        <ele>427</ele>
        <time>2021-03-06T08:38:01+01:00</time>
      </trkpt>
      <trkpt lat="46.91342" lon="4.59059">
        <ele>422</ele>
        <time>2021-03-06T08:38:06+01:00</time>
      </trkpt>
      <trkpt lat="46.91281" lon="4.59169">
        <ele>406</ele>
        <time>2021-03-06T08:38:11+01:00</time>
      </trkpt>
      <trkpt lat="46.91281" lon="4.59178">
        <ele>405</ele>
        <time>2021-03-06T08:38:16+01:00</time>
      </trkpt>
      <trkpt lat="46.91208" lon="4.59267">
        <ele>395</ele>
        <time>2021-03-06T08:38:21+01:00</time>
      </trkpt>
      <trkpt lat="46.91147" lon="4.59337">
        <ele>387</ele>
        <time>2021-03-06T08:38:26+01:00</time>
      </trkpt>
      <trkpt lat="46.91111" lon="4.59364">
        <ele>385</ele>
        <time>2021-03-06T08:38:31+01:00</time>
      </trkpt>
      <trkpt lat="46.911" lon="4.59397">
        <ele>381</ele>
        <time>2021-03-06T08:38:36+01:00</time>
      </trkpt>
      <trkpt lat="46.91097" lon="4.59434">
        <ele>378</ele>
        <time>2021-03-06T08:38:41+01:00</time>
      </trkpt>
      <trkpt lat="46.91073" lon="4.5946">
        <ele>376</ele>
        <time>2021-03-06T08:38:46+01:00</time>
      </trkpt>
      <trkpt lat="46.91052" lon="4.59499">
        <ele>374</ele>
        <time>2021-03-06T08:38:51+01:00</time>
      </trkpt>
      <trkpt lat="46.91024" lon="4.59528">
        <ele>373</ele>
        <time>2021-03-06T08:38:56+01:00</time>
      </trkpt>
      <trkpt lat="46.90996" lon="4.59607">
        <ele>372</ele>
        <time>2021-03-06T08:39:01+01:00</time>
      </trkpt>
      <trkpt lat="46.90902" lon="4.59604">
        <ele>372</ele>
        <time>2021-03-06T08:39:06+01:00</time>
      </trkpt>
      <trkpt lat="46.90847" lon="4.5958">
        <ele>370</ele>
        <time>2021-03-06T08:39:11+01:00</time>
      </trkpt>
      <trkpt lat="46.90842" lon="4.59588">
        <ele>370</ele>
        <time>2021-03-06T08:39:16+01:00</time>
      </trkpt>
      <trkpt lat="46.90804" lon="4.59581">
        <ele>370</ele>
        <time>2021-03-06T08:39:21+01:00</time>
      </trkpt>
      <trkpt lat="46.90763" lon="4.59563">
        <ele>370</ele>
        <time>2021-03-06T08:39:26+01:00</time>
      </trkpt>
      <trkpt lat="46.90754" lon="4.59576">
        <ele>371</ele>
        <time>2021-03-06T08:39:31+01:00</time>
      </trkpt>
      <trkpt lat="46.90741" lon="4.59632">
        <ele>374</ele>
        <time>2021-03-06T08:39:36+01:00</time>
      </trkpt>
      <trkpt lat="46.90704" lon="4.59648">
        <ele>374</ele>
        <time>2021-03-06T08:39:41+01:00</time>
      </trkpt>
      <trkpt lat="46.90674" lon="4.59676">
        <ele>374</ele>
        <time>2021-03-06T08:39:46+01:00</time>
      </trkpt>
      <trkpt lat="46.90627" lon="4.5971">
        <ele>377</ele>
        <time>2021-03-06T08:39:51+01:00</time>
      </trkpt>
      <trkpt lat="46.90573" lon="4.59766">
        <ele>382</ele>
        <time>2021-03-06T08:39:56+01:00</time>
      </trkpt>
      <trkpt lat="46.90496" lon="4.59854">
        <ele>394</ele>
        <time>2021-03-06T08:40:01+01:00</time>
      </trkpt>
      <trkpt lat="46.9043" lon="4.60087">
        <ele>413</ele>
        <time>2021-03-06T08:40:06+01:00</time>
      </trkpt>
      <trkpt lat="46.90425" lon="4.60247">
        <ele>430</ele>
        <time>2021-03-06T08:40:11+01:00</time>
      </trkpt>
      <trkpt lat="46.90446" lon="4.60408">
        <ele>450</ele>
        <time>2021-03-06T08:40:16+01:00</time>
      </trkpt>
      <trkpt lat="46.90494" lon="4.60634">
        <ele>483</ele>
        <time>2021-03-06T08:40:21+01:00</time>
      </trkpt>
      <trkpt lat="46.90472" lon="4.60756">
        <ele>504</ele>
        <time>2021-03-06T08:40:26+01:00</time>
      </trkpt>
      <trkpt lat="46.90375" lon="4.6076">
        <ele>503</ele>
        <time>2021-03-06T08:40:31+01:00</time>
      </trkpt>
      <trkpt lat="46.90288" lon="4.60798">
        <ele>505</ele>
        <time>2021-03-06T08:40:36+01:00</time>
      </trkpt>
      <trkpt lat="46.90237" lon="4.60829">
        <ele>506</ele>
        <time>2021-03-06T08:40:41+01:00</time>
      </trkpt>
      <trkpt lat="46.90261" lon="4.60876">
        <ele>515</ele>
        <time>2021-03-06T08:40:46+01:00</time>
      </trkpt>
      <trkpt lat="46.90222" lon="4.6094">
        <ele>518</ele>
        <time>2021-03-06T08:40:51+01:00</time>
      </trkpt>
      <trkpt lat="46.90222" lon="4.6103">
        <ele>524</ele>
        <time>2021-03-06T08:40:56+01:00</time>
      </trkpt>
      <trkpt lat="46.90257" lon="4.61064">
        <ele>531</ele>
        <time>2021-03-06T08:41:01+01:00</time>
      </trkpt>
      <trkpt lat="46.90281" lon="4.61125">
        <ele>533</ele>
        <time>2021-03-06T08:41:06+01:00</time>
      </trkpt>
      <trkpt lat="46.90305" lon="4.61121">
        <ele>534</ele>
        <time>2021-03-06T08:41:11+01:00</time>
      </trkpt>
      <trkpt lat="46.90314" lon="4.61143">
        <ele>536</ele>
        <time>2021-03-06T08:41:16+01:00</time>
      </trkpt>
      <trkpt lat="46.903" lon="4.6118">
        <ele>536</ele>
        <time>2021-03-06T08:41:21+01:00</time>
      </trkpt>
      <trkpt lat="46.90299" lon="4.61215">
        <ele>534</ele>
        <time>2021-03-06T08:41:26+01:00</time>
      </trkpt>
      <trkpt lat="46.90294" lon="4.61284">
        <ele>529</ele>
        <time>2021-03-06T08:41:31+01:00</time>
      </trkpt>
      <trkpt lat="46.90299" lon="4.61342">
        <ele>523</ele>
        <time>2021-03-06T08:41:36+01:00</time>
      </trkpt>
      <trkpt lat="46.90284" lon="4.61357">
        <ele>520</ele>
        <time>2021-03-06T08:41:41+01:00</time>
      </trkpt>
      <trkpt lat="46.90256" lon="4.61353">
        <ele>518</ele>
        <time>2021-03-06T08:41:46+01:00</time>
      </trkpt>
      <trkpt lat="46.90244" lon="4.61362">
        <ele>515</ele>
        <time>2021-03-06T08:41:51+01:00</time>
      </trkpt>
      <trkpt lat="46.90229" lon="4.61399">
        <ele>508</ele>
        <time>2021-03-06T08:41:56+01:00</time>
      </trkpt>
      <trkpt lat="46.90186" lon="4.61458">
        <ele>494</ele>
        <time>2021-03-06T08:42:01+01:00</time>
      </trkpt>
      <trkpt lat="46.90161" lon="4.61497">
        <ele>486</ele>
        <time>2021-03-06T08:42:06+01:00</time>
      </trkpt>
      <trkpt lat="46.90128" lon="4.61569">
        <ele>473</ele>
        <time>2021-03-06T08:42:11+01:00</time>
      </trkpt>
      <trkpt lat="46.90122" lon="4.61619">
        <ele>467</ele>
        <time>2021-03-06T08:42:16+01:00</time>
      </trkpt>
      <trkpt lat="46.90126" lon="4.61672">
        <ele>461</ele>
        <time>2021-03-06T08:42:21+01:00</time>
      </trkpt>
      <trkpt lat="46.90144" lon="4.61763">
        <ele>447</ele>
        <time>2021-03-06T08:42:26+01:00</time>
      </trkpt>
      <trkpt lat="46.90119" lon="4.61862">
        <ele>429</ele>
        <time>2021-03-06T08:42:31+01:00</time>
      </trkpt>
      <trkpt lat="46.90058" lon="4.61995">
        <ele>416</ele>
        <time>2021-03-06T08:42:36+01:00</time>
      </trkpt>
      <trkpt lat="46.90027" lon="4.62067">
        <ele>410</ele>
        <time>2021-03-06T08:42:41+01:00</time>
      </trkpt>
      <trkpt lat="46.9" lon="4.62164">
        <ele>405</ele>
        <time>2021-03-06T08:42:46+01:00</time>
      </trkpt>
      <trkpt lat="46.89891" lon="4.62533">
        <ele>402</ele>
        <time>2021-03-06T08:42:51+01:00</time>
      </trkpt>
      <trkpt lat="46.89973" lon="4.62663">
        <ele>400</ele>
        <time>2021-03-06T08:42:56+01:00</time>
      </trkpt>
      <trkpt lat="46.90034" lon="4.62738">
        <ele>399</ele>
        <time>2021-03-06T08:43:01+01:00</time>
      </trkpt>
      <trkpt lat="46.90124" lon="4.6279">
        <ele>397</ele>
        <time>2021-03-06T08:43:06+01:00</time>
      </trkpt>
      <trkpt lat="46.90299" lon="4.62862">
        <ele>393</ele>
        <time>2021-03-06T08:43:11+01:00</time>
      </trkpt>
      <trkpt lat="46.90556" lon="4.62932">
        <ele>385</ele>
        <time>2021-03-06T08:43:16+01:00</time>
      </trkpt>
      <trkpt lat="46.90519" lon="4.62972">
        <ele>385</ele>
        <time>2021-03-06T08:43:21+01:00</time>
      </trkpt>
      <trkpt lat="46.90453" lon="4.62983">
        <ele>387</ele>
        <time>2021-03-06T08:43:26+01:00</time>
      </trkpt>
      <trkpt lat="46.90432" lon="4.62996">
        <ele>387</ele>
        <time>2021-03-06T08:43:31+01:00</time>
      </trkpt>
      <trkpt lat="46.90447" lon="4.63047">
        <ele>384</ele>
        <time>2021-03-06T08:43:36+01:00</time>
      </trkpt>
      <trkpt lat="46.90448" lon="4.63085">
        <ele>382</ele>
        <time>2021-03-06T08:43:41+01:00</time>
      </trkpt>
      <trkpt lat="46.90516" lon="4.63229">
        <ele>371</ele>
        <time>2021-03-06T08:43:46+01:00</time>
      </trkpt>
      <trkpt lat="46.90601" lon="4.63296">
        <ele>356</ele>
        <time>2021-03-06T08:43:51+01:00</time>
      </trkpt>
      <trkpt lat="46.90617" lon="4.6335">
        <ele>347</ele>
        <time>2021-03-06T08:43:56+01:00</time>
      </trkpt>
      <trkpt lat="46.90626" lon="4.63402">
        <ele>338</ele>
        <time>2021-03-06T08:44:01+01:00</time>
      </trkpt>
      <trkpt lat="46.9066" lon="4.63487">
        <ele>327</ele>
        <time>2021-03-06T08:44:06+01:00</time>
      </trkpt>
      <trkpt lat="46.90693" lon="4.63551">
        <ele>318</ele>
        <time>2021-03-06T08:44:11+01:00</time>
      </trkpt>
      <trkpt lat="46.90754" lon="4.63615">
        <ele>311</ele>
        <time>2021-03-06T08:44:16+01:00</time>
      </trkpt>
      <trkpt lat="46.90804" lon="4.63651">
        <ele>300</ele>
        <time>2021-03-06T08:44:21+01:00</time>
      </trkpt>
      <trkpt lat="46.90825" lon="4.63658">
        <ele>296</ele>
        <time>2021-03-06T08:44:26+01:00</time>
      </trkpt>
      <trkpt lat="46.90865" lon="4.63644">
        <ele>293</ele>
        <time>2021-03-06T08:44:31+01:00</time>
      </trkpt>
      <trkpt lat="46.90863" lon="4.6366">
        <ele>292</ele>
        <time>2021-03-06T08:44:36+01:00</time>
      </trkpt>
      <trkpt lat="46.90833" lon="4.63733">
        <ele>292</ele>
        <time>2021-03-06T08:44:41+01:00</time>
      </trkpt>
      <trkpt lat="46.90792" lon="4.638">
        <ele>292</ele>
        <time>2021-03-06T08:44:46+01:00</time>
      </trkpt>
      <trkpt lat="46.90735" lon="4.6387">
        <ele>291</ele>
        <time>2021-03-06T08:44:51+01:00</time>
      </trkpt>
      <trkpt lat="46.90704" lon="4.63917">
        <ele>290</ele>
        <time>2021-03-06T08:44:56+01:00</time>
      </trkpt>
      <trkpt lat="46.90689" lon="4.63961">
        <ele>288</ele>
        <time>2021-03-06T08:45:01+01:00</time>
      </trkpt>
      <trkpt lat="46.90659" lon="4.64058">
        <ele>287</ele>
        <time>2021-03-06T08:45:06+01:00</time>
      </trkpt>
      <trkpt lat="46.90646" lon="4.64077">
        <ele>287</ele>
        <time>2021-03-06T08:45:11+01:00</time>
      </trkpt>
      <trkpt lat="46.906" lon="4.64107">
        <ele>288</ele>
        <time>2021-03-06T08:45:16+01:00</time>
      </trkpt>
      <trkpt lat="46.90554" lon="4.64123">
        <ele>290</ele>
        <time>2021-03-06T08:45:21+01:00</time>
      </trkpt>
      <trkpt lat="46.90511" lon="4.6413">
        <ele>292</ele>
        <time>2021-03-06T08:45:26+01:00</time>
      </trkpt>
      <trkpt lat="46.90519" lon="4.64231">
        <ele>286</ele>
        <time>2021-03-06T08:45:31+01:00</time>
      </trkpt>
      <trkpt lat="46.90487" lon="4.64274">
        <ele>287</ele>
        <time>2021-03-06T08:45:36+01:00</time>
      </trkpt>
      <trkpt lat="46.90495" lon="4.64292">
        <ele>286</ele>
        <time>2021-03-06T08:45:41+01:00</time>
      </trkpt>
      <trkpt lat="46.90537" lon="4.64311">
        <ele>283</ele>
        <time>2021-03-06T08:45:46+01:00</time>
      </trkpt>
      <trkpt lat="46.90563" lon="4.64348">
        <ele>282</ele>
        <time>2021-03-06T08:45:51+01:00</time>
      </trkpt>
      <trkpt lat="46.90565" lon="4.64364">
        <ele>282</ele>
        <time>2021-03-06T08:45:56+01:00</time>
      </trkpt>
      <trkpt lat="46.90553" lon="4.64394">
        <ele>282</ele>
        <time>2021-03-06T08:46:01+01:00</time>
      </trkpt>
      <trkpt lat="46.90563" lon="4.645">
        <ele>282</ele>
        <time>2021-03-06T08:46:06+01:00</time>
      </trkpt>
      <trkpt lat="46.90566" lon="4.64614">
        <ele>282</ele>
        <time>2021-03-06T08:46:11+01:00</time>
      </trkpt>
      <trkpt lat="46.90582" lon="4.64708">
        <ele>280</ele>
        <time>2021-03-06T08:46:16+01:00</time>
      </trkpt>
      <trkpt lat="46.90588" lon="4.64822">
        <ele>273</ele>
        <time>2021-03-06T08:46:21+01:00</time>
      </trkpt>
      <trkpt lat="46.90586" lon="4.64911">
        <ele>271</ele>
        <time>2021-03-06T08:46:26+01:00</time>
      </trkpt>
      <trkpt lat="46.90601" lon="4.65026">
        <ele>255</ele>
        <time>2021-03-06T08:46:31+01:00</time>
      </trkpt>
      <trkpt lat="46.90579" lon="4.65113">
        <ele>246</ele>
        <time>2021-03-06T08:46:36+01:00</time>
      </trkpt>
      <trkpt lat="46.90565" lon="4.65146">
        <ele>244</ele>
        <time>2021-03-06T08:46:41+01:00</time>
      </trkpt>
      <trkpt lat="46.9056" lon="4.65178">
        <ele>241</ele>
        <time>2021-03-06T08:46:46+01:00</time>
      </trkpt>
      <trkpt lat="46.90564" lon="4.65186">
        <ele>241</ele>
        <time>2021-03-06T08:46:51+01:00</time>
      </trkpt>
      <trkpt lat="46.90503" lon="4.65282">
        <ele>238</ele>
        <time>2021-03-06T08:46:56+01:00</time>
      </trkpt>
      <trkpt lat="46.905" lon="4.65327">
        <ele>237</ele>
        <time>2021-03-06T08:47:01+01:00</time>
      </trkpt>
      <trkpt lat="46.90506" lon="4.65367">
        <ele>236</ele>
        <time>2021-03-06T08:47:06+01:00</time>
      </trkpt>
      <trkpt lat="46.90479" lon="4.65382">
        <ele>236</ele>
        <time>2021-03-06T08:47:11+01:00</time>
      </trkpt>
      <trkpt lat="46.90368" lon="4.65286">
        <ele>239</ele>
        <time>2021-03-06T08:47:16+01:00</time>
      </trkpt>
      <trkpt lat="46.90291" lon="4.65243">
        <ele>242</ele>
        <time>2021-03-06T08:47:21+01:00</time>
      </trkpt>
      <trkpt lat="46.90247" lon="4.65212">
        <ele>245</ele>
        <time>2021-03-06T08:47:26+01:00</time>
      </trkpt>
      <trkpt lat="46.9018" lon="4.65118">
        <ele>251</ele>
        <time>2021-03-06T08:47:31+01:00</time>
      </trkpt>
      <trkpt lat="46.90118" lon="4.65097">
        <ele>257</ele>
        <time>2021-03-06T08:47:36+01:00</time>
      </trkpt>
      <trkpt lat="46.90013" lon="4.65037">
        <ele>271</ele>
        <time>2021-03-06T08:47:41+01:00</time>
      </trkpt>
      <trkpt lat="46.89943" lon="4.64986">
        <ele>283</ele>
        <time>2021-03-06T08:47:46+01:00</time>
      </trkpt>
      <trkpt lat="46.89941" lon="4.65076">
        <ele>279</ele>
        <time>2021-03-06T08:47:51+01:00</time>
      </trkpt>
      <trkpt lat="46.8995" lon="4.65231">
        <ele>280</ele>
        <time>2021-03-06T08:47:56+01:00</time>
      </trkpt>
      <trkpt lat="46.89899" lon="4.65344">
        <ele>283</ele>
        <time>2021-03-06T08:48:01+01:00</time>
      </trkpt>
      <trkpt lat="46.89822" lon="4.65437">
        <ele>285</ele>
        <time>2021-03-06T08:48:06+01:00</time>
      </trkpt>
      <trkpt lat="46.8968" lon="4.65566">
        <ele>289</ele>
        <time>2021-03-06T08:48:11+01:00</time>
      </trkpt>
      <trkpt lat="46.89638" lon="4.65448">
        <ele>300</ele>
        <time>2021-03-06T08:48:16+01:00</time>
      </trkpt>
      <trkpt lat="46.89545" lon="4.65313">
        <ele>310</ele>
        <time>2021-03-06T08:48:21+01:00</time>
      </trkpt>
      <trkpt lat="46.89492" lon="4.65456">
        <ele>304</ele>
        <time>2021-03-06T08:48:26+01:00</time>
      </trkpt>
      <trkpt lat="46.89366" lon="4.65662">
        <ele>281</ele>
        <time>2021-03-06T08:48:31+01:00</time>
      </trkpt>
      <trkpt lat="46.89375" lon="4.65732">
        <ele>274</ele>
        <time>2021-03-06T08:48:36+01:00</time>
      </trkpt>
      <trkpt lat="46.89418" lon="4.65798">
        <ele>269</ele>
        <time>2021-03-06T08:48:41+01:00</time>
      </trkpt>
      <trkpt lat="46.89454" lon="4.65905">
        <ele>263</ele>
        <time>2021-03-06T08:48:46+01:00</time>
      </trkpt>
      <trkpt lat="46.89473" lon="4.66066">
        <ele>259</ele>
        <time>2021-03-06T08:48:51+01:00</time>
      </trkpt>
      <trkpt lat="46.89484" lon="4.66214">
        <ele>254</ele>
        <time>2021-03-06T08:48:56+01:00</time>
      </trkpt>
      <trkpt lat="46.89469" lon="4.66372">
        <ele>252</ele>
        <time>2021-03-06T08:49:01+01:00</time>
      </trkpt>
      <trkpt lat="46.89445" lon="4.66436">
        <ele>251</ele>
        <time>2021-03-06T08:49:06+01:00</time>
      </trkpt>
      <trkpt lat="46.89434" lon="4.66482">
        <ele>250</ele>
        <time>2021-03-06T08:49:11+01:00</time>
      </trkpt>
      <trkpt lat="46.89438" lon="4.66521">
        <ele>249</ele>
        <time>2021-03-06T08:49:16+01:00</time>
      </trkpt>
      <trkpt lat="46.89491" lon="4.66571">
        <ele>248</ele>
        <time>2021-03-06T08:49:21+01:00</time>
      </trkpt>
      <trkpt lat="46.89539" lon="4.66622">
        <ele>243</ele>
        <time>2021-03-06T08:49:26+01:00</time>
      </trkpt>
      <trkpt lat="46.89567" lon="4.66662">
        <ele>239</ele>
        <time>2021-03-06T08:49:31+01:00</time>
      </trkpt>
      <trkpt lat="46.89579" lon="4.66689">
        <ele>237</ele>
        <time>2021-03-06T08:49:36+01:00</time>
      </trkpt>
      <trkpt lat="46.89595" lon="4.66727">
        <ele>234</ele>
        <time>2021-03-06T08:49:41+01:00</time>
      </trkpt>
      <trkpt lat="46.89606" lon="4.66791">
        <ele>231</ele>
        <time>2021-03-06T08:49:46+01:00</time>
      </trkpt>
      <trkpt lat="46.89705" lon="4.66872">
        <ele>225</ele>
        <time>2021-03-06T08:49:51+01:00</time>
      </trkpt>
      <trkpt lat="46.89772" lon="4.66919">
        <ele>224</ele>
        <time>2021-03-06T08:49:56+01:00</time>
      </trkpt>
      <trkpt lat="46.90006" lon="4.6699">
        <ele>232</ele>
        <time>2021-03-06T08:50:01+01:00</time>
      </trkpt>
      <trkpt lat="46.90039" lon="4.66984">
        <ele>236</ele>
        <time>2021-03-06T08:50:06+01:00</time>
      </trkpt>
      <trkpt lat="46.90079" lon="4.6697">
        <ele>240</ele>
        <time>2021-03-06T08:50:11+01:00</time>
      </trkpt>
      <trkpt lat="46.90132" lon="4.66979">
        <ele>243</ele>
        <time>2021-03-06T08:50:16+01:00</time>
      </trkpt>
      <trkpt lat="46.90147" lon="4.66981">
        <ele>244</ele>
        <time>2021-03-06T08:50:21+01:00</time>
      </trkpt>
      <trkpt lat="46.90238" lon="4.66963">
        <ele>248</ele>
        <time>2021-03-06T08:50:26+01:00</time>
      </trkpt>
      <trkpt lat="46.90332" lon="4.67026">
        <ele>253</ele>
        <time>2021-03-06T08:50:31+01:00</time>
      </trkpt>
      <trkpt lat="46.90395" lon="4.67044">
        <ele>257</ele>
        <time>2021-03-06T08:50:36+01:00</time>
      </trkpt>
      <trkpt lat="46.90464" lon="4.67054">
        <ele>261</ele>
        <time>2021-03-06T08:50:41+01:00</time>
      </trkpt>
      <trkpt lat="46.90503" lon="4.671">
        <ele>263</ele>
        <time>2021-03-06T08:50:46+01:00</time>
      </trkpt>
      <trkpt lat="46.90527" lon="4.6713">
        <ele>263</ele>
        <time>2021-03-06T08:50:51+01:00</time>
      </trkpt>
      <trkpt lat="46.90598" lon="4.6724">
        <ele>262</ele>
        <time>2021-03-06T08:50:56+01:00</time>
      </trkpt>
      <trkpt lat="46.90712" lon="4.67371">
        <ele>263</ele>
        <time>2021-03-06T08:51:01+01:00</time>
      </trkpt>
      <trkpt lat="46.90736" lon="4.67383">
        <ele>263</ele>
        <time>2021-03-06T08:51:06+01:00</time>
      </trkpt>
      <trkpt lat="46.90774" lon="4.6739">
        <ele>266</ele>
        <time>2021-03-06T08:51:11+01:00</time>
      </trkpt>
      <trkpt lat="46.90861" lon="4.67458">
        <ele>271</ele>
        <time>2021-03-06T08:51:16+01:00</time>
      </trkpt>
      <trkpt lat="46.90926" lon="4.67459">
        <ele>279</ele>
        <time>2021-03-06T08:51:21+01:00</time>
      </trkpt>
      <trkpt lat="46.90928" lon="4.67491">
        <ele>278</ele>
        <time>2021-03-06T08:51:26+01:00</time>
      </trkpt>
      <trkpt lat="46.90951" lon="4.67545">
        <ele>278</ele>
        <time>2021-03-06T08:51:31+01:00</time>
      </trkpt>
      <trkpt lat="46.91014" lon="4.67588">
        <ele>281</ele>
        <time>2021-03-06T08:51:36+01:00</time>
      </trkpt>
      <trkpt lat="46.91104" lon="4.67645">
        <ele>283</ele>
        <time>2021-03-06T08:51:41+01:00</time>
      </trkpt>
      <trkpt lat="46.91135" lon="4.67679">
        <ele>282</ele>
        <time>2021-03-06T08:51:46+01:00</time>
      </trkpt>
      <trkpt lat="46.91215" lon="4.67756">
        <ele>281</ele>
        <time>2021-03-06T08:51:51+01:00</time>
      </trkpt>
      <trkpt lat="46.91301" lon="4.67828">
        <ele>276</ele>
        <time>2021-03-06T08:51:56+01:00</time>
      </trkpt>
      <trkpt lat="46.91331" lon="4.67912">
        <ele>268</ele>
        <time>2021-03-06T08:52:01+01:00</time>
      </trkpt>
      <trkpt lat="46.91386" lon="4.6804">
        <ele>262</ele>
        <time>2021-03-06T08:52:06+01:00</time>
      </trkpt>
      <trkpt lat="46.91414" lon="4.68011">
        <ele>264</ele>
        <time>2021-03-06T08:52:11+01:00</time>
      </trkpt>
      <trkpt lat="46.915" lon="4.67965">
        <ele>271</ele>
        <time>2021-03-06T08:52:16+01:00</time>
      </trkpt>
      <trkpt lat="46.91585" lon="4.67931">
        <ele>280</ele>
        <time>2021-03-06T08:52:21+01:00</time>
      </trkpt>
      <trkpt lat="46.91664" lon="4.67933">
        <ele>285</ele>
        <time>2021-03-06T08:52:26+01:00</time>
      </trkpt>
      <trkpt lat="46.91722" lon="4.67899">
        <ele>291</ele>
        <time>2021-03-06T08:52:31+01:00</time>
      </trkpt>
      <trkpt lat="46.91833" lon="4.67814">
        <ele>304</ele>
        <time>2021-03-06T08:52:36+01:00</time>
      </trkpt>
      <trkpt lat="46.9192" lon="4.67736">
        <ele>316</ele>
        <time>2021-03-06T08:52:41+01:00</time>
      </trkpt>
      <trkpt lat="46.9197" lon="4.67782">
        <ele>323</ele>
        <time>2021-03-06T08:52:46+01:00</time>
      </trkpt>
      <trkpt lat="46.91976" lon="4.67801">
        <ele>324</ele>
        <time>2021-03-06T08:52:51+01:00</time>
      </trkpt>
      <trkpt lat="46.91964" lon="4.67824">
        <ele>322</ele>
        <time>2021-03-06T08:52:56+01:00</time>
      </trkpt>
    </trkseg>
  </trk>
</gpx>